Time;durP1;ratioP1;P1;durP2;ratioP2;P2;SDS_P1;SDS_P2;PMS_P1;PMS_P2;Temp;Humidity;BMP_temperature;BMP_pressure;BME280_temperature;BME280_humidity;BME280_pressure;Samples;Min_cycle;Max_cycle;Signal;HPM_P1;HPM_P2
2022/11/09 00:00:05;;;;;;;3.55;0.98;;;20.20;1.00;;;;;;4879974;29;20084;-48
2022/11/09 00:02:32;;;;;;;6.13;1.50;;;20.20;1.00;;;;;;4880503;29;20101;-51
2022/11/09 00:04:59;;;;;;;10.13;1.70;;;20.10;1.00;;;;;;4880856;29;20104;-51
2022/11/09 00:07:28;;;;;;;10.35;1.45;;;20.10;1.00;;;;;;4880062;29;20045;-49
2022/11/09 00:09:55;;;;;;;3.55;0.82;;;20.10;1.00;;;;;;4880011;29;20121;-48
2022/11/09 00:12:22;;;;;;;5.63;1.92;;;20.10;1.00;;;;;;4880638;29;20076;-52
2022/11/09 00:14:49;;;;;;;6.43;1.60;;;20.10;1.00;;;;;;4880114;29;20040;-53
2022/11/09 00:17:16;;;;;;;5.28;1.48;;;20.00;1.00;;;;;;4880039;29;20056;-52
2022/11/09 00:19:42;;;;;;;4.28;1.15;;;20.00;1.00;;;;;;4879824;29;20101;-51
2022/11/09 00:22:09;;;;;;;7.22;1.77;;;20.00;1.00;;;;;;4880007;29;20432;-51
2022/11/09 00:24:36;;;;;;;10.25;2.13;;;20.00;1.00;;;;;;4880167;29;20120;-52
2022/11/09 00:27:03;;;;;;;6.82;2.10;;;20.00;1.00;;;;;;4879831;29;20049;-52
2022/11/09 00:29:29;;;;;;;8.80;2.20;;;20.00;1.00;;;;;;4879564;29;20040;-48
2022/11/09 00:31:56;;;;;;;6.63;1.48;;;20.00;1.00;;;;;;4879960;29;20052;-53
2022/11/09 00:34:23;;;;;;;5.93;1.50;;;19.90;1.00;;;;;;4879937;29;20045;-53
2022/11/09 00:36:50;;;;;;;4.38;1.35;;;19.90;1.00;;;;;;4879977;29;20041;-49
2022/11/09 00:39:17;;;;;;;6.43;1.67;;;19.90;1.00;;;;;;4879575;29;20040;-53
2022/11/09 00:41:43;;;;;;;5.57;1.15;;;19.90;1.00;;;;;;4879680;29;20068;-47
2022/11/09 00:44:10;;;;;;;6.65;2.08;;;19.80;1.00;;;;;;4879649;29;20041;-48
2022/11/09 00:46:37;;;;;;;8.10;1.77;;;19.80;1.00;;;;;;4879545;29;20488;-50
2022/11/09 00:49:04;;;;;;;6.43;1.13;;;19.80;1.00;;;;;;4879345;29;20045;-49
2022/11/09 00:51:31;;;;;;;6.80;1.25;;;19.80;1.00;;;;;;4878318;29;20076;-49
2022/11/09 00:53:58;;;;;;;11.25;1.73;;;19.70;1.00;;;;;;4880049;29;20053;-48
2022/11/09 00:56:25;;;;;;;9.13;2.00;;;19.70;1.00;;;;;;4878340;29;20041;-48
2022/11/09 00:58:55;;;;;;;7.82;1.40;;;19.70;1.00;;;;;;4879465;29;20045;-51
2022/11/09 01:01:21;;;;;;;5.10;1.20;;;19.70;1.00;;;;;;4878361;29;20144;-48
2022/11/09 01:03:48;;;;;;;6.60;1.65;;;19.70;1.00;;;;;;4879868;29;20049;-49
2022/11/09 01:06:21;;;;;;;6.10;1.10;;;19.60;1.00;;;;;;4878403;29;20057;-50
2022/11/09 01:08:48;;;;;;;6.38;1.55;;;19.60;1.00;;;;;;4879440;29;20506;-48
2022/11/09 01:11:17;;;;;;;5.38;1.75;;;19.60;1.00;;;;;;4879589;29;20400;-48
2022/11/09 01:13:44;;;;;;;9.30;1.48;;;19.60;1.00;;;;;;4879592;29;20045;-48
2022/11/09 01:16:14;;;;;;;8.18;1.50;;;19.60;1.00;;;;;;4879544;29;20097;-49
2022/11/09 01:18:41;;;;;;;4.75;1.63;;;19.60;1.00;;;;;;4879445;29;20045;-48
2022/11/09 01:21:11;;;;;;;5.18;0.95;;;19.50;1.00;;;;;;4879576;29;20100;-48
2022/11/09 01:23:39;;;;;;;7.43;2.05;;;19.60;1.00;;;;;;4878553;29;20059;-49
2022/11/09 01:26:08;;;;;;;5.60;1.92;;;19.50;1.00;;;;;;4877988;29;20064;-48
2022/11/09 01:28:35;;;;;;;8.23;1.38;;;19.50;1.00;;;;;;4877751;29;20045;-48
2022/11/09 01:31:21;;;;;;;4.53;1.58;;;19.50;1.00;;;;;;4873134;29;20049;-47
2022/11/09 01:33:48;;;;;;;8.88;1.60;;;19.50;1.00;;;;;;4860991;29;20042;-47
2022/11/09 01:36:18;;;;;;;4.75;1.33;;;19.50;1.00;;;;;;4860506;29;20500;-49
2022/11/09 01:38:45;;;;;;;9.75;3.10;;;19.50;1.00;;;;;;4860787;29;20086;-48
2022/11/09 01:41:19;;;;;;;6.72;2.42;;;19.40;1.00;;;;;;4860978;29;20049;-49
2022/11/09 01:44:10;;;;;;;10.55;1.73;;;19.40;1.00;;;;;;4860971;29;20068;-49
2022/11/09 01:46:55;;;;;;;7.43;1.80;;;19.40;1.00;;;;;;4859587;29;20137;-48
2022/11/09 01:49:40;;;;;;;8.05;1.98;;;19.40;1.00;;;;;;4858674;29;20511;-47
2022/11/09 01:52:20;;;;;;;9.23;1.75;;;19.40;1.00;;;;;;4861165;29;20041;-48
2022/11/09 01:54:50;;;;;;;5.97;1.42;;;19.30;1.00;;;;;;4859837;29;20053;-47
2022/11/09 01:57:23;;;;;;;8.45;2.33;;;19.30;1.00;;;;;;4860609;29;20129;-46
2022/11/09 02:00:06;;;;;;;5.20;1.50;;;19.30;1.00;;;;;;4860874;29;20489;-47
2022/11/09 02:03:07;;;;;;;6.32;1.73;;;19.30;1.00;;;;;;4864207;29;20576;-48
2022/11/09 02:05:36;;;;;;;11.45;2.50;;;19.30;1.00;;;;;;4862641;29;20053;-48
2022/11/09 02:08:05;;;;;;;7.15;1.77;;;19.30;1.00;;;;;;4862936;29;20041;-49
2022/11/09 02:10:44;;;;;;;6.03;1.30;;;19.30;1.00;;;;;;4863391;29;20045;-46
2022/11/09 02:13:15;;;;;;;8.93;1.88;;;19.30;1.00;;;;;;4864124;29;20049;-51
2022/11/09 02:15:42;;;;;;;5.72;1.50;;;19.20;1.00;;;;;;4863870;29;20408;-46
2022/11/09 02:18:12;;;;;;;10.40;1.70;;;19.20;1.00;;;;;;4877901;29;20057;-50
2022/11/09 02:20:48;;;;;;;4.28;1.65;;;19.20;1.00;;;;;;4861940;29;20049;-47
2022/11/09 02:23:15;;;;;;;6.40;1.48;;;19.20;1.00;;;;;;4863624;29;20056;-49
2022/11/09 02:25:48;;;;;;;10.90;1.88;;;19.20;1.00;;;;;;4863605;29;20076;-49
2022/11/09 02:28:16;;;;;;;8.98;2.67;;;19.20;1.00;;;;;;4862860;29;20234;-48
2022/11/09 02:30:47;;;;;;;9.95;2.10;;;19.20;1.00;;;;;;4861861;29;20045;-50
2022/11/09 02:33:14;;;;;;;8.07;1.42;;;19.20;1.00;;;;;;4862183;29;20548;-48
2022/11/09 02:35:41;;;;;;;9.38;1.52;;;19.10;1.00;;;;;;4862151;29;20050;-47
2022/11/09 02:38:10;;;;;;;9.10;1.98;;;19.10;1.00;;;;;;4877156;29;20046;-47
2022/11/09 02:40:41;;;;;;;9.90;1.55;;;19.10;1.00;;;;;;4862870;29;20078;-47
2022/11/09 02:43:09;;;;;;;7.78;1.98;;;19.10;1.00;;;;;;4863726;29;20050;-46
2022/11/09 02:45:36;;;;;;;12.88;2.35;;;19.10;1.00;;;;;;4863238;29;20441;-50
2022/11/09 02:48:05;;;;;;;5.47;1.30;;;19.10;1.00;;;;;;4861918;29;20128;-48
2022/11/09 02:50:35;;;;;;;8.38;1.67;;;19.10;1.00;;;;;;4877292;29;20496;-47
2022/11/09 02:53:04;;;;;;;10.30;1.88;;;19.10;1.00;;;;;;4862011;29;20519;-48
2022/11/09 02:55:34;;;;;;;7.50;1.48;;;19.10;1.00;;;;;;4862448;29;20113;-52
2022/11/09 02:58:01;;;;;;;4.50;1.10;;;19.10;1.00;;;;;;4861552;29;20117;-49
2022/11/09 03:00:29;;;;;;;9.45;1.88;;;19.00;1.00;;;;;;4877002;29;20098;-49
2022/11/09 03:02:56;;;;;;;16.20;2.15;;;19.00;1.00;;;;;;4877181;29;20401;-51
2022/11/09 03:05:22;;;;;;;10.82;1.92;;;19.00;1.00;;;;;;4862999;29;20430;-47
2022/11/09 03:07:50;;;;;;;6.53;2.05;;;19.00;1.00;;;;;;4862713;29;20056;-52
2022/11/09 03:10:17;;;;;;;9.10;2.58;;;19.00;1.00;;;;;;4860386;29;20045;-49
2022/11/09 03:12:45;;;;;;;9.07;1.85;;;19.00;1.00;;;;;;4861003;29;20156;-48
2022/11/09 03:15:13;;;;;;;11.10;2.58;;;19.00;1.00;;;;;;4861262;29;20056;-48
2022/11/09 03:17:45;;;;;;;7.85;1.60;;;19.00;1.00;;;;;;4861610;29;20090;-52
2022/11/09 03:20:12;;;;;;;8.55;2.13;;;18.90;1.00;;;;;;4860950;29;20042;-47
2022/11/09 03:22:40;;;;;;;10.23;2.22;;;19.00;1.00;;;;;;4861220;29;20107;-49
2022/11/09 03:25:08;;;;;;;8.57;2.28;;;18.90;1.00;;;;;;4861044;29;20049;-49
2022/11/09 03:27:34;;;;;;;15.23;2.78;;;18.90;1.00;;;;;;4862668;29;20400;-48
2022/11/09 03:30:03;;;;;;;9.73;2.90;;;18.90;1.00;;;;;;4861066;29;20065;-50
2022/11/09 03:32:30;;;;;;;7.85;2.03;;;18.90;1.00;;;;;;4861284;29;20054;-49
2022/11/09 03:34:57;;;;;;;9.88;2.63;;;18.90;1.00;;;;;;4876458;29;20049;-49
2022/11/09 03:37:23;;;;;;;7.03;1.75;;;18.90;1.00;;;;;;4861077;29;20415;-50
2022/11/09 03:39:50;;;;;;;9.93;1.90;;;18.90;1.00;;;;;;4860277;29;20138;-49
2022/11/09 03:42:17;;;;;;;9.48;1.88;;;18.90;1.00;;;;;;4862501;29;20101;-50
2022/11/09 03:44:44;;;;;;;10.45;2.30;;;18.80;1.00;;;;;;4860734;29;20136;-50
2022/11/09 03:47:11;;;;;;;7.47;1.75;;;18.80;1.00;;;;;;4862105;29;20479;-51
2022/11/09 03:49:38;;;;;;;8.73;1.60;;;18.80;1.00;;;;;;4861734;29;20412;-52
2022/11/09 03:52:04;;;;;;;7.20;1.35;;;18.80;1.00;;;;;;4862047;29;20045;-52
2022/11/09 03:54:31;;;;;;;8.10;1.40;;;18.80;1.00;;;;;;4861840;29;20051;-48
2022/11/09 03:56:58;;;;;;;8.88;1.85;;;18.80;1.00;;;;;;4862182;29;20434;-51
2022/11/09 03:59:25;;;;;;;10.93;2.17;;;18.80;1.00;;;;;;4861449;29;20568;-49
2022/11/09 04:01:51;;;;;;;5.88;2.05;;;18.80;1.00;;;;;;4862304;29;20049;-48
2022/11/09 04:04:18;;;;;;;10.63;2.85;;;18.70;1.00;;;;;;4862305;29;20068;-49
2022/11/09 04:06:45;;;;;;;11.43;2.55;;;18.70;1.00;;;;;;4861766;29;20053;-52
2022/11/09 04:09:12;;;;;;;6.10;2.00;;;18.70;1.00;;;;;;4861299;29;20043;-49
2022/11/09 04:11:39;;;;;;;5.28;1.75;;;18.70;1.00;;;;;;4861787;29;20049;-48
2022/11/09 04:14:05;;;;;;;7.10;1.75;;;18.70;1.00;;;;;;4861925;29;20094;-50
2022/11/09 04:16:32;;;;;;;9.95;1.55;;;18.70;1.00;;;;;;4861862;29;20046;-49
2022/11/09 04:18:59;;;;;;;6.38;1.50;;;18.70;1.00;;;;;;4861010;29;20049;-52
2022/11/09 04:21:26;;;;;;;5.28;1.52;;;18.70;1.00;;;;;;4861216;29;20053;-48
2022/11/09 04:23:52;;;;;;;7.53;1.65;;;18.70;1.00;;;;;;4861274;29;20054;-49
2022/11/09 04:26:19;;;;;;;10.70;2.83;;;18.70;1.00;;;;;;4861789;29;20072;-48
2022/11/09 04:28:46;;;;;;;10.13;1.25;;;18.70;1.00;;;;;;4861410;29;20050;-49
2022/11/09 04:31:14;;;;;;;8.13;2.17;;;18.70;1.00;;;;;;4861112;29;20050;-49
2022/11/09 04:33:41;;;;;;;8.63;2.13;;;18.70;1.00;;;;;;4861289;29;20041;-52
2022/11/09 04:36:08;;;;;;;9.48;1.63;;;18.70;1.00;;;;;;4861175;29;20053;-49
2022/11/09 04:38:35;;;;;;;8.00;1.98;;;18.70;1.00;;;;;;4861273;29;20045;-51
2022/11/09 04:41:03;;;;;;;10.68;1.40;;;18.60;1.00;;;;;;4861151;29;20519;-49
2022/11/09 04:43:30;;;;;;;7.95;2.08;;;18.60;1.00;;;;;;4861103;29;20077;-49
2022/11/09 04:46:03;;;;;;;8.20;1.58;;;18.60;1.00;;;;;;4861252;29;20564;-46
2022/11/09 04:48:31;;;;;;;8.55;1.75;;;18.60;1.00;;;;;;4860862;29;20049;-49
2022/11/09 04:51:09;;;;;;;7.75;1.30;;;18.60;1.00;;;;;;4861009;29;20500;-52
2022/11/09 04:53:36;;;;;;;4.45;2.25;;;18.60;1.00;;;;;;4861448;29;20109;-48
2022/11/09 04:56:05;;;;;;;10.25;1.98;;;18.60;1.00;;;;;;4861335;29;20056;-52
2022/11/09 04:58:32;;;;;;;9.60;2.20;;;18.60;1.00;;;;;;4860691;29;20046;-49
2022/11/09 05:01:26;;;;;;;9.93;1.95;;;18.60;1.00;;;;;;4860781;29;20046;-48
2022/11/09 05:03:52;;;;;;;10.02;1.63;;;18.60;1.00;;;;;;4859231;29;20060;-49
2022/11/09 05:06:31;;;;;;;8.32;1.58;;;18.60;1.00;;;;;;4860931;29;20045;-47
2022/11/09 05:09:01;;;;;;;5.32;1.48;;;18.60;1.00;;;;;;4860463;29;20045;-51
2022/11/09 05:11:29;;;;;;;14.27;1.67;;;18.60;1.00;;;;;;4855348;29;20121;-52
2022/11/09 05:13:56;;;;;;;7.95;1.63;;;18.60;1.00;;;;;;4841873;29;20536;-52
2022/11/09 05:16:23;;;;;;;8.05;1.38;;;18.50;1.00;;;;;;4861133;29;20046;-52
2022/11/09 05:18:50;;;;;;;11.55;1.48;;;18.50;1.00;;;;;;4860573;29;20068;-52
2022/11/09 05:21:17;;;;;;;9.00;1.98;;;18.50;1.00;;;;;;4860684;29;20049;-50
2022/11/09 05:24:00;;;;;;;18.08;2.72;;;18.50;1.00;;;;;;4860708;29;20102;-52
2022/11/09 05:26:33;;;;;;;7.53;1.23;;;18.50;1.00;;;;;;4860878;29;20404;-50
2022/11/09 05:29:02;;;;;;;10.10;1.88;;;18.50;1.00;;;;;;4860602;29;20065;-50
2022/11/09 05:31:30;;;;;;;4.35;0.80;;;18.50;1.00;;;;;;4860580;29;20106;-48
2022/11/09 05:33:58;;;;;;;7.50;1.63;;;18.50;1.00;;;;;;4861598;29;20048;-50
2022/11/09 05:36:26;;;;;;;3.55;1.48;;;18.50;1.00;;;;;;4865152;29;20057;-51
2022/11/09 05:38:54;;;;;;;9.90;1.50;;;18.40;1.00;;;;;;4864093;29;20080;-50
2022/11/09 05:41:20;;;;;;;6.55;1.52;;;18.40;1.00;;;;;;4864333;29;20425;-50
2022/11/09 05:43:47;;;;;;;9.27;2.35;;;18.40;1.00;;;;;;4860327;29;20055;-49
2022/11/09 05:46:15;;;;;;;7.10;1.40;;;18.40;1.00;;;;;;4867096;29;20105;-49
2022/11/09 05:48:43;;;;;;;9.43;2.47;;;18.40;1.00;;;;;;4875844;29;20042;-50
2022/11/09 05:51:12;;;;;;;6.32;1.75;;;18.40;1.00;;;;;;4864694;29;20045;-49
2022/11/09 05:53:40;;;;;;;9.85;1.73;;;18.40;1.00;;;;;;4863289;29;20488;-47
2022/11/09 05:56:13;;;;;;;6.72;1.33;;;18.40;1.00;;;;;;4863071;29;20049;-52
2022/11/09 05:58:40;;;;;;;4.82;1.23;;;18.40;1.00;;;;;;4864098;29;20057;-49
2022/11/09 06:01:16;;;;;;;5.40;1.80;;;18.40;1.00;;;;;;4863753;29;20053;-50
2022/11/09 06:03:43;;;;;;;5.95;1.45;;;18.40;1.00;;;;;;4862554;29;20523;-49
2022/11/09 06:06:14;;;;;;;7.22;1.10;;;18.40;1.00;;;;;;4863952;29;20469;-48
2022/11/09 06:08:41;;;;;;;9.15;1.67;;;18.40;1.00;;;;;;4863448;29;20502;-49
2022/11/09 06:11:11;;;;;;;4.53;1.60;;;18.40;1.00;;;;;;4863863;29;20057;-50
2022/11/09 06:13:40;;;;;;;10.02;1.65;;;18.30;1.00;;;;;;4863611;29;20069;-48
2022/11/09 06:16:08;;;;;;;10.70;1.23;;;18.30;1.00;;;;;;4863664;29;20075;-48
2022/11/09 06:18:36;;;;;;;5.88;1.30;;;18.30;1.00;;;;;;4863247;29;20504;-50
2022/11/09 06:21:04;;;;;;;4.90;1.40;;;18.30;1.00;;;;;;4863281;29;20075;-48
2022/11/09 06:23:32;;;;;;;9.43;2.03;;;18.30;1.00;;;;;;4863574;29;20098;-47
2022/11/09 06:26:08;;;;;;;6.35;1.17;;;18.30;1.00;;;;;;4863536;29;20050;-50
2022/11/09 06:28:39;;;;;;;7.47;1.52;;;18.30;1.00;;;;;;4863013;29;20041;-49
2022/11/09 06:31:09;;;;;;;2.38;0.60;;;18.30;1.00;;;;;;4863458;29;20508;-47
2022/11/09 06:33:36;;;;;;;7.68;1.33;;;18.30;1.00;;;;;;4863343;29;20106;-49
2022/11/09 06:36:03;;;;;;;8.00;1.52;;;18.30;1.00;;;;;;4863340;29;20038;-50
2022/11/09 06:38:30;;;;;;;13.98;1.80;;;18.20;1.00;;;;;;4863345;29;20042;-47
2022/11/09 06:40:58;;;;;;;6.88;1.88;;;18.20;1.00;;;;;;4863039;29;20477;-49
2022/11/09 06:43:26;;;;;;;5.22;1.33;;;18.20;1.00;;;;;;4863270;29;20146;-47
2022/11/09 06:45:53;;;;;;;6.85;1.33;;;18.20;1.00;;;;;;4863205;29;20488;-50
2022/11/09 06:48:20;;;;;;;6.63;1.85;;;18.20;1.00;;;;;;4863371;29;20053;-50
2022/11/09 06:50:47;;;;;;;4.60;1.02;;;18.20;1.00;;;;;;4862794;29;20038;-51
2022/11/09 06:53:16;;;;;;;10.60;1.95;;;18.20;1.00;;;;;;4863129;29;20041;-49
2022/11/09 06:55:43;;;;;;;5.80;1.52;;;18.20;1.00;;;;;;4862918;29;20152;-48
2022/11/09 06:58:18;;;;;;;11.98;2.22;;;18.20;1.00;;;;;;4858995;29;20064;-51
2022/11/09 07:00:45;;;;;;;4.30;0.90;;;18.20;1.00;;;;;;4862601;29;20506;-51
2022/11/09 07:03:14;;;;;;;3.08;1.08;;;18.20;1.00;;;;;;4863002;29;20518;-50
2022/11/09 07:05:42;;;;;;;5.82;1.45;;;18.20;1.00;;;;;;4862508;29;20121;-47
2022/11/09 07:08:09;;;;;;;8.75;1.80;;;18.20;1.00;;;;;;4862536;29;20067;-47
2022/11/09 07:10:36;;;;;;;5.65;1.20;;;18.10;1.00;;;;;;4862529;29;20052;-47
2022/11/09 07:13:04;;;;;;;6.55;1.38;;;18.20;1.00;;;;;;4862595;29;20110;-49
2022/11/09 07:15:32;;;;;;;4.35;1.38;;;18.20;1.00;;;;;;4862684;29;20041;-47
2022/11/09 07:18:00;;;;;;;6.55;1.50;;;18.10;1.00;;;;;;4862365;29;20050;-48
2022/11/09 07:20:28;;;;;;;5.38;1.50;;;18.10;1.00;;;;;;4862091;29;20440;-48
2022/11/09 07:22:54;;;;;;;4.30;0.95;;;18.10;1.00;;;;;;4862381;29;20053;-48
2022/11/09 07:25:22;;;;;;;8.43;2.92;;;18.10;1.00;;;;;;4862681;29;20468;-49
2022/11/09 07:27:49;;;;;;;7.15;1.08;;;18.10;1.00;;;;;;4862084;29;20129;-51
2022/11/09 07:30:16;;;;;;;3.47;0.82;;;18.10;1.00;;;;;;4861820;29;20105;-48
2022/11/09 07:32:43;;;;;;;12.45;2.05;;;18.10;1.00;;;;;;4862075;29;20042;-47
2022/11/09 07:35:29;;;;;;;7.72;1.42;;;18.10;1.00;;;;;;4862548;29;20037;-48
2022/11/09 07:38:00;;;;;;;6.80;1.13;;;18.10;1.00;;;;;;4862302;29;20114;-50
2022/11/09 07:40:27;;;;;;;6.70;1.20;;;18.10;1.00;;;;;;4861893;29;20041;-51
2022/11/09 07:42:59;;;;;;;7.53;1.67;;;18.10;1.00;;;;;;4862172;29;20059;-48
2022/11/09 07:45:28;;;;;;;6.53;1.48;;;18.10;1.00;;;;;;4862063;29;20059;-49
2022/11/09 07:47:56;;;;;;;5.60;1.08;;;18.10;1.00;;;;;;4861812;29;20136;-48
2022/11/09 07:50:23;;;;;;;12.20;1.73;;;18.10;1.00;;;;;;4861505;29;20052;-48
2022/11/09 07:52:50;;;;;;;8.50;2.15;;;18.10;1.00;;;;;;4861795;29;20492;-51
2022/11/09 07:55:17;;;;;;;7.72;1.90;;;18.10;1.00;;;;;;4861738;29;20069;-50
2022/11/09 07:57:45;;;;;;;7.05;1.23;;;18.10;1.00;;;;;;4861170;29;20046;-51
2022/11/09 08:00:13;;;;;;;5.25;1.25;;;18.10;1.00;;;;;;4861426;29;20060;-48
2022/11/09 08:02:47;;;;;;;5.38;1.33;;;18.10;1.00;;;;;;4862269;29;20556;-49
2022/11/09 08:05:14;;;;;;;6.68;1.42;;;18.10;1.00;;;;;;4862030;29;20049;-52
2022/11/09 08:07:41;;;;;;;5.25;1.40;;;18.00;1.00;;;;;;4861964;29;20069;-49
2022/11/09 08:10:08;;;;;;;7.15;1.08;;;18.00;1.00;;;;;;4861168;29;20214;-55
2022/11/09 08:12:35;;;;;;;8.15;1.30;;;18.00;1.00;;;;;;4861880;29;20049;-50
2022/11/09 08:15:04;;;;;;;9.77;2.00;;;18.00;1.00;;;;;;4861677;29;20045;-53
2022/11/09 08:17:31;;;;;;;15.18;2.17;;;18.00;1.00;;;;;;4861877;29;20388;-51
2022/11/09 08:19:58;;;;;;;6.95;1.52;;;18.00;1.00;;;;;;4861482;29;20369;-49
2022/11/09 08:22:25;;;;;;;10.05;1.60;;;18.00;1.00;;;;;;4862081;29;20385;-51
2022/11/09 08:24:51;;;;;;;3.83;1.30;;;18.00;1.00;;;;;;4861174;29;20552;-50
2022/11/09 08:27:18;;;;;;;6.68;1.73;;;18.00;1.00;;;;;;4861227;29;20050;-50
2022/11/09 08:29:45;;;;;;;7.20;1.17;;;18.00;1.00;;;;;;4860860;29;20481;-50
2022/11/09 08:32:12;;;;;;;6.03;1.35;;;18.00;1.00;;;;;;4861227;29;20102;-47
2022/11/09 08:34:38;;;;;;;4.38;1.00;;;18.00;1.00;;;;;;4861093;29;20564;-50
2022/11/09 08:37:05;;;;;;;12.55;1.90;;;18.00;1.00;;;;;;4861473;29;20492;-50
2022/11/09 08:39:32;;;;;;;11.27;1.77;;;18.00;1.00;;;;;;4860706;29;20061;-48
2022/11/09 08:41:59;;;;;;;6.97;1.67;;;18.00;1.00;;;;;;4861460;29;20440;-50
2022/11/09 08:44:26;;;;;;;4.97;1.80;;;18.00;1.00;;;;;;4861175;29;20049;-51
2022/11/09 08:46:52;;;;;;;7.88;1.63;;;18.00;1.00;;;;;;4861424;29;20052;-49
2022/11/09 08:49:19;;;;;;;9.10;2.03;;;18.00;1.00;;;;;;4860314;29;20120;-51
2022/11/09 08:51:46;;;;;;;5.13;2.28;;;18.00;1.00;;;;;;4861717;29;20037;-49
2022/11/09 08:54:14;;;;;;;8.60;1.73;;;18.00;1.00;;;;;;4860994;29;20551;-51
2022/11/09 08:56:40;;;;;;;6.95;1.80;;;18.00;1.00;;;;;;4861143;29;20065;-48
2022/11/09 08:59:07;;;;;;;5.63;1.35;;;18.00;1.00;;;;;;4860665;29;20098;-49
2022/11/09 09:01:34;;;;;;;6.53;1.58;;;17.90;1.00;;;;;;4860889;29;20412;-49
2022/11/09 09:04:01;;;;;;;5.82;1.52;;;17.90;1.00;;;;;;4860902;29;20042;-50
2022/11/09 09:06:28;;;;;;;7.38;1.60;;;17.90;1.00;;;;;;4861419;29;20216;-46
2022/11/09 09:08:57;;;;;;;9.60;2.28;;;17.90;1.00;;;;;;4861275;29;20044;-49
2022/11/09 09:11:24;;;;;;;5.60;1.55;;;17.90;1.00;;;;;;4864569;29;20080;-47
2022/11/09 09:13:51;;;;;;;6.05;1.35;;;17.90;1.00;;;;;;4864817;29;20548;-50
2022/11/09 09:16:17;;;;;;;5.65;1.95;;;17.90;1.00;;;;;;4865075;29;20065;-50
2022/11/09 09:18:47;;;;;;;9.75;2.20;;;17.90;1.00;;;;;;4864357;29;20063;-49
2022/11/09 09:21:14;;;;;;;8.75;2.47;;;17.90;1.00;;;;;;4864390;29;20049;-49
2022/11/09 09:23:41;;;;;;;7.20;1.55;;;17.90;1.00;;;;;;4864647;29;20102;-49
2022/11/09 09:26:08;;;;;;;6.75;1.70;;;17.90;1.00;;;;;;4864507;29;20056;-49
2022/11/09 09:28:35;;;;;;;7.72;1.95;;;17.90;1.00;;;;;;4864107;29;20046;-47
2022/11/09 09:31:03;;;;;;;5.50;1.48;;;17.90;1.00;;;;;;4864626;29;20097;-50
2022/11/09 09:33:30;;;;;;;9.15;1.38;;;17.90;1.00;;;;;;4864258;29;20041;-50
2022/11/09 09:35:58;;;;;;;7.15;1.45;;;17.90;1.00;;;;;;4864774;29;20045;-48
2022/11/09 09:38:26;;;;;;;5.88;2.25;;;17.90;1.00;;;;;;4863945;29;20408;-48
2022/11/09 09:41:00;;;;;;;7.18;1.50;;;17.90;1.00;;;;;;4864362;29;20098;-49
2022/11/09 09:43:36;;;;;;;9.20;2.13;;;17.90;1.00;;;;;;4864125;29;20049;-49
2022/11/09 09:46:22;;;;;;;8.70;1.95;;;17.90;1.00;;;;;;4864083;29;20050;-48
2022/11/09 09:49:21;;;;;;;7.75;1.73;;;17.90;1.00;;;;;;4864085;29;20059;-48
2022/11/09 09:51:59;;;;;;;8.07;1.40;;;17.90;1.00;;;;;;4864315;29;20045;-46
2022/11/09 09:54:32;;;;;;;5.05;1.33;;;17.90;1.00;;;;;;4863890;29;20045;-46
2022/11/09 09:57:02;;;;;;;5.70;1.10;;;17.90;1.00;;;;;;4864283;29;20102;-47
2022/11/09 09:59:40;;;;;;;6.72;1.25;;;17.90;1.00;;;;;;4863658;29;20052;-48
2022/11/09 10:02:30;;;;;;;9.05;1.88;;;17.90;1.00;;;;;;4863834;29;20046;-53
2022/11/09 10:04:59;;;;;;;8.60;2.05;;;17.90;1.00;;;;;;4863657;29;20492;-48
2022/11/09 10:07:55;;;;;;;4.93;1.15;;;17.90;1.00;;;;;;4863906;29;20421;-49
2022/11/09 10:10:43;;;;;;;6.53;1.80;;;17.80;1.00;;;;;;4863099;29;20102;-49
2022/11/09 10:13:47;;;;;;;4.40;1.02;;;17.80;1.00;;;;;;4863765;29;20452;-50
2022/11/09 10:16:33;;;;;;;5.22;1.88;;;17.80;1.00;;;;;;4863810;29;20042;-48
2022/11/09 10:19:27;;;;;;;6.22;1.80;;;17.80;1.00;;;;;;4863415;29;20408;-49
2022/11/09 10:22:06;;;;;;;8.70;1.88;;;17.80;1.00;;;;;;4863434;29;20379;-47
2022/11/09 10:24:48;;;;;;;7.80;1.67;;;17.80;1.00;;;;;;4863514;29;20103;-47
2022/11/09 10:27:40;;;;;;;7.28;1.52;;;17.80;1.00;;;;;;4863317;29;20048;-48
2022/11/09 10:30:14;;;;;;;6.20;2.22;;;17.80;1.00;;;;;;4862850;29;20049;-49
2022/11/09 10:32:44;;;;;;;14.95;1.48;;;17.80;1.00;;;;;;4863325;29;20080;-48
2022/11/09 10:35:34;;;;;;;6.20;1.00;;;17.80;1.00;;;;;;4863309;29;20041;-52
2022/11/09 10:38:01;;;;;;;10.57;1.55;;;17.80;1.00;;;;;;4863744;29;20049;-49
2022/11/09 10:40:30;;;;;;;7.50;2.10;;;17.80;1.00;;;;;;4862775;29;20053;-50
2022/11/09 10:43:15;;;;;;;4.32;1.77;;;17.80;1.00;;;;;;4863273;29;20423;-49
2022/11/09 10:46:04;;;;;;;4.47;1.08;;;17.80;1.00;;;;;;4863474;29;20189;-48
2022/11/09 10:48:51;;;;;;;8.30;1.92;;;17.80;1.00;;;;;;4862781;29;20065;-48
2022/11/09 10:51:42;;;;;;;10.45;1.98;;;17.80;1.00;;;;;;4862936;29;20053;-49
2022/11/09 10:54:31;;;;;;;7.22;1.77;;;17.80;1.00;;;;;;4863185;29;20056;-49
2022/11/09 10:57:23;;;;;;;5.70;1.73;;;17.80;1.00;;;;;;4862977;29;20154;-49
2022/11/09 11:00:16;;;;;;;8.00;0.93;;;17.80;1.00;;;;;;4862531;29;20559;-51
2022/11/09 11:03:16;;;;;;;7.15;1.52;;;17.80;1.00;;;;;;4862803;29;20060;-50
2022/11/09 11:06:05;;;;;;;6.45;1.75;;;17.80;1.00;;;;;;4862618;29;20064;-50
2022/11/09 11:08:56;;;;;;;14.38;2.15;;;17.80;1.00;;;;;;4845352;29;20056;-50
2022/11/09 11:11:42;;;;;;;7.53;1.42;;;17.80;1.00;;;;;;4854710;29;20452;-51
2022/11/09 11:14:33;;;;;;;13.70;1.83;;;17.80;1.00;;;;;;4847947;29;20049;-50
2022/11/09 11:17:21;;;;;;;10.48;2.30;;;17.80;1.00;;;;;;4854675;29;21447;-47
2022/11/09 11:20:30;;;;;;;6.95;2.08;;;17.80;1.00;;;;;;4852202;29;20833;-47
2022/11/09 11:23:18;;;;;;;5.18;1.90;;;17.70;1.00;;;;;;4854077;29;20076;-48
2022/11/09 11:26:31;;;;;;;5.55;0.85;;;17.80;1.00;;;;;;4853882;29;20061;-51
2022/11/09 11:30:01;;;;;;;6.45;0.95;;;17.80;1.00;;;;;;4853421;29;20166;-49
2022/11/09 11:32:47;;;;;;;11.10;1.70;;;17.80;1.00;;;;;;4852712;29;20056;-50
2022/11/09 11:35:53;;;;;;;9.07;1.63;;;17.70;1.00;;;;;;4847371;29;20107;-49
2022/11/09 11:38:46;;;;;;;8.32;1.17;;;17.70;1.00;;;;;;4843520;29;20060;-49
2022/11/09 11:41:43;;;;;;;5.53;1.33;;;17.70;1.00;;;;;;4843999;29;20064;-49
2022/11/09 11:44:50;;;;;;;5.75;1.48;;;17.70;1.00;;;;;;4843632;29;20065;-51
2022/11/09 11:48:06;;;;;;;7.93;1.48;;;17.70;1.00;;;;;;4843988;29;20110;-50
2022/11/09 11:51:18;;;;;;;3.80;1.58;;;17.70;1.00;;;;;;4842593;29;20149;-50
2022/11/09 11:54:30;;;;;;;6.03;1.27;;;17.70;1.00;;;;;;4843683;29;20060;-52
2022/11/09 11:57:44;;;;;;;6.55;1.10;;;17.70;1.00;;;;;;4843616;29;20053;-53
2022/11/09 12:00:34;;;;;;;3.58;1.63;;;17.70;1.00;;;;;;4843079;29;20145;-50
2022/11/09 12:03:29;;;;;;;7.22;1.08;;;17.70;1.00;;;;;;4843588;29;20052;-50
2022/11/09 12:06:30;;;;;;;9.52;1.85;;;17.70;1.00;;;;;;4843446;29;20531;-53
2022/11/09 12:09:54;;;;;;;7.57;1.35;;;17.70;1.00;;;;;;4861381;29;20158;-53
2022/11/09 12:13:17;;;;;;;8.68;1.42;;;17.70;1.00;;;;;;4853372;29;20061;-49
2022/11/09 12:16:14;;;;;;;6.67;2.40;;;17.70;1.00;;;;;;4862470;29;20060;-53
2022/11/09 12:19:36;;;;;;;8.18;1.60;;;17.70;1.00;;;;;;4842782;29;20061;-49
2022/11/09 12:22:44;;;;;;;7.60;1.80;;;17.70;1.00;;;;;;4842742;29;20072;-53
2022/11/09 12:25:48;;;;;;;7.22;1.27;;;17.70;1.00;;;;;;4843412;29;20427;-51
2022/11/09 12:29:01;;;;;;;5.28;1.38;;;17.70;1.00;;;;;;4842858;29;20065;-51
2022/11/09 12:31:46;;;;;;;9.10;1.60;;;17.70;1.00;;;;;;4842939;29;20053;-51
2022/11/09 12:34:44;;;;;;;10.07;2.33;;;17.70;1.00;;;;;;4842840;29;20049;-52
2022/11/09 12:37:38;;;;;;;6.63;1.58;;;17.70;1.00;;;;;;4853534;29;20053;-54
2022/11/09 12:40:23;;;;;;;9.37;1.73;;;17.70;1.00;;;;;;4861319;29;20137;-52
2022/11/09 12:43:14;;;;;;;6.70;1.25;;;17.70;1.00;;;;;;4861730;29;20337;-50
2022/11/09 12:46:03;;;;;;;7.40;1.00;;;17.70;1.00;;;;;;4855653;29;20088;-52
2022/11/09 12:48:48;;;;;;;7.22;1.15;;;17.70;1.00;;;;;;4861205;29;20062;-54
2022/11/09 12:51:34;;;;;;;11.20;1.75;;;17.70;1.00;;;;;;4861350;29;20052;-55
2022/11/09 12:54:20;;;;;;;9.75;1.85;;;17.70;1.00;;;;;;4861011;29;20523;-52
2022/11/09 12:57:13;;;;;;;12.10;2.15;;;17.70;1.00;;;;;;4861604;29;20061;-51
2022/11/09 12:59:59;;;;;;;9.73;1.00;;;17.70;1.00;;;;;;4860990;29;20090;-51
2022/11/09 13:02:58;;;;;;;8.68;1.77;;;17.70;1.00;;;;;;4861341;29;20061;-50
2022/11/09 13:05:46;;;;;;;4.55;0.80;;;17.70;1.00;;;;;;4861542;29;20128;-50
2022/11/09 13:08:31;;;;;;;9.52;1.50;;;17.70;1.00;;;;;;4861069;29;20384;-53
2022/11/09 13:11:35;;;;;;;7.82;2.13;;;17.70;1.00;;;;;;4860973;29;20133;-55
2022/11/09 13:14:21;;;;;;;;;;;17.70;1.00;;;;;;4861566;29;20048;-54
2022/11/09 13:17:45;;;;;;;7.28;0.88;;;17.70;1.00;;;;;;4861497;29;19947;-54
2022/11/09 13:20:33;;;;;;;9.27;1.40;;;17.70;1.00;;;;;;4860965;29;20148;-54
2022/11/09 13:23:39;;;;;;;3.95;0.90;;;17.70;1.00;;;;;;4861232;29;20068;-54
2022/11/09 13:26:45;;;;;;;5.35;0.82;;;17.70;1.00;;;;;;4860877;29;20077;-53
2022/11/09 13:29:40;;;;;;;8.88;1.45;;;17.70;1.00;;;;;;4860596;29;20060;-50
2022/11/09 13:32:28;;;;;;;4.28;1.15;;;17.70;1.00;;;;;;4860872;29;20064;-53
2022/11/09 13:35:38;;;;;;;7.93;1.15;;;17.60;1.00;;;;;;4860625;29;20061;-54